sensor_id;sensor_type;location;lat;lon;timestamp;pressure;altitude;pressure_sealevel;temperature;humidity
77263;BME280;66373;52.334;4.806;2023-09-19T00:00:38;100537.31;;;22.91;55.78
77263;BME280;66373;52.334;4.806;2023-09-19T00:03:07;100528.91;;;22.84;56.03
77263;BME280;66373;52.334;4.806;2023-09-19T00:05:37;100561.44;;;22.99;56.03
77263;BME280;66373;52.334;4.806;2023-09-19T00:08:05;100512.06;;;22.69;55.81
77263;BME280;66373;52.334;4.806;2023-09-19T00:10:34;100567.81;;;22.93;56.11
77263;BME280;66373;52.334;4.806;2023-09-19T00:13:03;100579.00;;;22.97;55.83
77263;BME280;66373;52.334;4.806;2023-09-19T00:15:38;100570.28;;;22.96;55.85
77263;BME280;66373;52.334;4.806;2023-09-19T00:18:06;100547.63;;;22.75;55.90
77263;BME280;66373;52.334;4.806;2023-09-19T00:20:35;100576.53;;;22.94;55.59
77263;BME280;66373;52.334;4.806;2023-09-19T00:23:04;100584.38;;;22.94;55.66
77263;BME280;66373;52.334;4.806;2023-09-19T00:25:36;100594.03;;;22.93;55.86
77263;BME280;66373;52.334;4.806;2023-09-19T00:28:06;100561.38;;;22.82;55.76
77263;BME280;66373;52.334;4.806;2023-09-19T00:30:35;100568.50;;;22.78;55.63
77263;BME280;66373;52.334;4.806;2023-09-19T00:33:30;100585.38;;;22.91;55.80
77263;BME280;66373;52.334;4.806;2023-09-19T00:35:58;100593.44;;;22.87;55.64
77263;BME280;66373;52.334;4.806;2023-09-19T00:38:25;100591.78;;;22.86;55.64
77263;BME280;66373;52.334;4.806;2023-09-19T00:40:54;100593.31;;;22.90;55.67
77263;BME280;66373;52.334;4.806;2023-09-19T00:43:22;100596.84;;;22.89;55.53
77263;BME280;66373;52.334;4.806;2023-09-19T00:45:52;100575.75;;;22.72;55.46
77263;BME280;66373;52.334;4.806;2023-09-19T00:48:21;100597.16;;;22.83;55.48
77263;BME280;66373;52.334;4.806;2023-09-19T00:50:50;100567.19;;;22.68;55.35
77263;BME280;66373;52.334;4.806;2023-09-19T00:53:21;100602.28;;;22.86;55.55
77263;BME280;66373;52.334;4.806;2023-09-19T00:55:50;100589.53;;;22.77;55.52
77263;BME280;66373;52.334;4.806;2023-09-19T00:58:18;100593.00;;;22.77;55.35
77263;BME280;66373;52.334;4.806;2023-09-19T01:00:47;100604.09;;;22.84;55.28
77263;BME280;66373;52.334;4.806;2023-09-19T01:03:15;100578.53;;;22.68;55.47
77263;BME280;66373;52.334;4.806;2023-09-19T01:05:43;100600.63;;;22.83;55.40
77263;BME280;66373;52.334;4.806;2023-09-19T01:08:12;100602.41;;;22.83;55.41
77263;BME280;66373;52.334;4.806;2023-09-19T01:10:46;100597.16;;;22.83;55.46
77263;BME280;66373;52.334;4.806;2023-09-19T01:13:22;100599.84;;;22.81;55.48
77263;BME280;66373;52.334;4.806;2023-09-19T01:16:01;100581.28;;;22.65;55.16
77263;BME280;66373;52.334;4.806;2023-09-19T01:18:38;100603.47;;;22.79;55.19
77263;BME280;66373;52.334;4.806;2023-09-19T01:21:11;100603.47;;;22.79;55.52
77263;BME280;66373;52.334;4.806;2023-09-19T01:24:07;100583.75;;;22.68;55.52
77263;BME280;66373;52.334;4.806;2023-09-19T01:26:56;100541.19;;;22.43;55.19
77263;BME280;66373;52.334;4.806;2023-09-19T01:29:34;100597.78;;;22.67;55.30
77263;BME280;66373;52.334;4.806;2023-09-19T01:32:08;100610.63;;;22.74;55.16
77263;BME280;66373;52.334;4.806;2023-09-19T01:34:46;100589.28;;;22.62;55.19
77263;BME280;66373;52.334;4.806;2023-09-19T01:37:14;100601.47;;;22.63;55.36
77263;BME280;66373;52.334;4.806;2023-09-19T01:39:46;100615.03;;;22.73;55.29
77263;BME280;66373;52.334;4.806;2023-09-19T01:42:23;100615.03;;;22.73;55.26
77263;BME280;66373;52.334;4.806;2023-09-19T01:45:02;100608.09;;;22.72;55.31
77263;BME280;66373;52.334;4.806;2023-09-19T01:47:37;100608.16;;;22.71;55.21
77263;BME280;66373;52.334;4.806;2023-09-19T01:50:13;100594.19;;;22.70;55.37
77263;BME280;66373;52.334;4.806;2023-09-19T01:52:49;100595.94;;;22.69;55.27
77263;BME280;66373;52.334;4.806;2023-09-19T01:55:19;100601.19;;;22.69;55.16
77263;BME280;66373;52.334;4.806;2023-09-19T01:57:54;100610.84;;;22.69;55.31
77263;BME280;66373;52.334;4.806;2023-09-19T02:00:26;100605.22;;;22.58;55.04
77263;BME280;66373;52.334;4.806;2023-09-19T02:02:58;100608.28;;;22.67;55.21
77263;BME280;66373;52.334;4.806;2023-09-19T02:05:26;100611.81;;;22.66;55.19
77263;BME280;66373;52.334;4.806;2023-09-19T02:07:54;100560.22;;;22.28;54.98
77263;BME280;66373;52.334;4.806;2023-09-19T02:10:21;100617.06;;;22.66;55.03
77263;BME280;66373;52.334;4.806;2023-09-19T02:12:50;100522.00;;;22.04;55.25
77263;BME280;66373;52.334;4.806;2023-09-19T02:15:17;100596.66;;;22.54;55.18
77263;BME280;66373;52.334;4.806;2023-09-19T02:17:45;100611.09;;;22.63;54.96
77263;BME280;66373;52.334;4.806;2023-09-19T02:20:14;100617.19;;;22.63;54.59
77263;BME280;66373;52.334;4.806;2023-09-19T02:22:43;100618.19;;;22.61;54.85
77263;BME280;66373;52.334;4.806;2023-09-19T02:25:10;100597.81;;;22.47;55.07
77263;BME280;66373;52.334;4.806;2023-09-19T02:27:39;100611.53;;;22.54;54.92
77263;BME280;66373;52.334;4.806;2023-09-19T02:30:10;100625.22;;;22.60;54.94
77263;BME280;66373;52.334;4.806;2023-09-19T02:32:37;100636.63;;;22.59;55.04
77263;BME280;66373;52.334;4.806;2023-09-19T02:35:06;100598.34;;;22.35;54.89
77263;BME280;66373;52.334;4.806;2023-09-19T02:37:36;100634.06;;;22.58;54.93
77263;BME280;66373;52.334;4.806;2023-09-19T02:40:06;100627.97;;;22.57;54.76
77263;BME280;66373;52.334;4.806;2023-09-19T02:42:44;100621.16;;;22.53;54.87
77263;BME280;66373;52.334;4.806;2023-09-19T02:45:15;100548.69;;;22.12;54.64
77263;BME280;66373;52.334;4.806;2023-09-19T02:47:45;100627.19;;;22.55;55.02
77263;BME280;66373;52.334;4.806;2023-09-19T02:50:13;100621.94;;;22.55;54.76
77263;BME280;66373;52.334;4.806;2023-09-19T02:52:45;100580.28;;;22.29;54.83
77263;BME280;66373;52.334;4.806;2023-09-19T02:55:15;100613.28;;;22.53;54.78
77263;BME280;66373;52.334;4.806;2023-09-19T02:57:46;100621.16;;;22.53;54.88
77263;BME280;66373;52.334;4.806;2023-09-19T03:00:13;100608.97;;;22.52;54.80
77263;BME280;66373;52.334;4.806;2023-09-19T03:02:41;100607.25;;;22.51;54.71
77263;BME280;66373;52.334;4.806;2023-09-19T03:05:09;100607.25;;;22.51;54.67
77263;BME280;66373;52.334;4.806;2023-09-19T03:07:38;100618.66;;;22.50;54.66
77263;BME280;66373;52.334;4.806;2023-09-19T03:10:08;100604.09;;;22.43;54.67
77263;BME280;66373;52.334;4.806;2023-09-19T03:12:35;100603.00;;;22.49;54.71
77263;BME280;66373;52.334;4.806;2023-09-19T03:15:03;100509.56;;;21.87;54.57
77263;BME280;66373;52.334;4.806;2023-09-19T03:17:31;100552.88;;;22.16;54.71
77263;BME280;66373;52.334;4.806;2023-09-19T03:19:59;100616.16;;;22.47;54.61
77263;BME280;66373;52.334;4.806;2023-09-19T03:22:26;100614.47;;;22.46;54.78
77263;BME280;66373;52.334;4.806;2023-09-19T03:24:53;100610.13;;;22.45;54.62
77263;BME280;66373;52.334;4.806;2023-09-19T03:27:23;100605.81;;;22.44;54.69
77263;BME280;66373;52.334;4.806;2023-09-19T03:29:51;100604.97;;;22.44;54.53
77263;BME280;66373;52.334;4.806;2023-09-19T03:32:18;100582.91;;;22.29;54.50
77263;BME280;66373;52.334;4.806;2023-09-19T03:34:46;100614.59;;;22.43;54.56
77263;BME280;66373;52.334;4.806;2023-09-19T03:37:15;100611.19;;;22.41;54.67
77263;BME280;66373;52.334;4.806;2023-09-19T03:39:43;100616.41;;;22.41;54.77
77263;BME280;66373;52.334;4.806;2023-09-19T03:42:10;100560.50;;;22.02;54.75
77263;BME280;66373;52.334;4.806;2023-09-19T03:44:38;100601.25;;;22.29;54.26
77263;BME280;66373;52.334;4.806;2023-09-19T03:47:06;100630.44;;;22.40;54.54
77263;BME280;66373;52.334;4.806;2023-09-19T03:49:33;100620.31;;;22.32;54.47
77263;BME280;66373;52.334;4.806;2023-09-19T03:52:01;100635.75;;;22.39;54.58
77263;BME280;66373;52.334;4.806;2023-09-19T03:54:28;100582.16;;;22.05;54.47
77263;BME280;66373;52.334;4.806;2023-09-19T03:56:54;100551.00;;;21.77;54.16
77263;BME280;66373;52.334;4.806;2023-09-19T03:59:21;100634.09;;;22.36;54.51
77263;BME280;66373;52.334;4.806;2023-09-19T04:01:49;100605.41;;;22.13;54.69
77263;BME280;66373;52.334;4.806;2023-09-19T04:04:21;100610.91;;;22.07;54.70
77263;BME280;66373;52.334;4.806;2023-09-19T04:06:50;100654.22;;;22.35;54.51
77263;BME280;66373;52.334;4.806;2023-09-19T04:09:18;100581.66;;;21.95;54.49
77263;BME280;66373;52.334;4.806;2023-09-19T04:11:45;100626.84;;;22.22;54.27
77263;BME280;66373;52.334;4.806;2023-09-19T04:14:12;100653.53;;;22.32;54.39
77263;BME280;66373;52.334;4.806;2023-09-19T04:16:39;100653.47;;;22.33;54.56
77263;BME280;66373;52.334;4.806;2023-09-19T04:19:10;100648.28;;;22.32;54.42
77263;BME280;66373;52.334;4.806;2023-09-19T04:21:38;100652.66;;;22.31;54.44
77263;BME280;66373;52.334;4.806;2023-09-19T04:24:09;100651.81;;;22.31;54.36
77263;BME280;66373;52.334;4.806;2023-09-19T04:26:36;100661.44;;;22.30;54.28
77263;BME280;66373;52.334;4.806;2023-09-19T04:29:05;100667.66;;;22.28;54.26
77263;BME280;66373;52.334;4.806;2023-09-19T04:31:32;100647.06;;;22.19;54.22
77263;BME280;66373;52.334;4.806;2023-09-19T04:33:59;100658.88;;;22.29;54.39
77263;BME280;66373;52.334;4.806;2023-09-19T04:36:34;100654.56;;;22.28;54.37
77263;BME280;66373;52.334;4.806;2023-09-19T04:39:02;100629.91;;;22.12;54.03
77263;BME280;66373;52.334;4.806;2023-09-19T04:41:33;100572.88;;;21.76;54.31
77263;BME280;66373;52.334;4.806;2023-09-19T04:44:05;100665.16;;;22.25;53.98
77263;BME280;66373;52.334;4.806;2023-09-19T04:46:33;100639.75;;;22.07;54.31
77263;BME280;66373;52.334;4.806;2023-09-19T04:49:00;100585.22;;;21.73;54.06
77263;BME280;66373;52.334;4.806;2023-09-19T04:51:28;100672.28;;;22.21;53.75
77263;BME280;66373;52.334;4.806;2023-09-19T04:54:12;100620.66;;;21.81;54.56
77263;BME280;66373;52.334;4.806;2023-09-19T04:56:41;100661.28;;;22.13;54.54
77263;BME280;66373;52.334;4.806;2023-09-19T04:59:08;100675.88;;;22.19;54.62
77263;BME280;66373;52.334;4.806;2023-09-19T05:01:36;100646.06;;;22.01;54.51
77263;BME280;66373;52.334;4.806;2023-09-19T05:04:04;100589.47;;;21.75;54.85
77263;BME280;66373;52.334;4.806;2023-09-19T05:06:31;100622.81;;;21.92;54.93
77263;BME280;66373;52.334;4.806;2023-09-19T05:09:01;100673.28;;;22.19;54.87
77263;BME280;66373;52.334;4.806;2023-09-19T05:11:34;100615.53;;;21.78;55.17
77263;BME280;66373;52.334;4.806;2023-09-19T05:14:04;100672.41;;;22.18;55.18
77263;BME280;66373;52.334;4.806;2023-09-19T05:16:31;100666.31;;;22.18;55.09
77263;BME280;66373;52.334;4.806;2023-09-19T05:18:59;100625.38;;;21.93;54.91
77263;BME280;66373;52.334;4.806;2023-09-19T05:21:27;100641.50;;;22.06;54.97
77263;BME280;66373;52.334;4.806;2023-09-19T05:23:56;100669.84;;;22.17;55.05
77263;BME280;66373;52.334;4.806;2023-09-19T05:26:23;100613.84;;;21.77;55.08
77263;BME280;66373;52.334;4.806;2023-09-19T05:28:52;100660.41;;;22.13;54.92
77263;BME280;66373;52.334;4.806;2023-09-19T05:31:22;100659.50;;;22.14;54.93
77263;BME280;66373;52.334;4.806;2023-09-19T05:33:58;100664.16;;;22.07;55.04
77263;BME280;66373;52.334;4.806;2023-09-19T05:36:26;100669.13;;;22.13;54.97
77263;BME280;66373;52.334;4.806;2023-09-19T05:38:55;100673.50;;;22.13;54.90
77263;BME280;66373;52.334;4.806;2023-09-19T05:41:22;100595.31;;;21.60;54.83
77263;BME280;66373;52.334;4.806;2023-09-19T05:43:49;100673.50;;;22.13;54.79
77263;BME280;66373;52.334;4.806;2023-09-19T05:46:18;100657.22;;;22.06;54.53
77263;BME280;66373;52.334;4.806;2023-09-19T05:48:45;100673.50;;;22.13;54.64
77263;BME280;66373;52.334;4.806;2023-09-19T05:51:17;100608.06;;;21.69;54.78
77263;BME280;66373;52.334;4.806;2023-09-19T05:53:47;100685.81;;;22.11;54.44
77263;BME280;66373;52.334;4.806;2023-09-19T05:56:14;100691.06;;;22.11;54.60
77263;BME280;66373;52.334;4.806;2023-09-19T05:58:41;100696.34;;;22.09;54.81
77263;BME280;66373;52.334;4.806;2023-09-19T06:01:10;100686.72;;;22.10;54.50
77263;BME280;66373;52.334;4.806;2023-09-19T06:03:38;100639.91;;;21.80;54.59
77263;BME280;66373;52.334;4.806;2023-09-19T06:06:05;100698.16;;;22.09;54.45
77263;BME280;66373;52.334;4.806;2023-09-19T06:08:33;100681.66;;;22.07;54.72
77263;BME280;66373;52.334;4.806;2023-09-19T06:11:02;100649.25;;;21.86;54.57
77263;BME280;66373;52.334;4.806;2023-09-19T06:13:31;100640.81;;;21.79;54.77
77263;BME280;66373;52.334;4.806;2023-09-19T06:15:59;100566.34;;;21.43;54.72
77263;BME280;66373;52.334;4.806;2023-09-19T06:18:28;100625.28;;;21.75;54.65
77263;BME280;66373;52.334;4.806;2023-09-19T06:21:00;100689.50;;;22.07;54.81
77263;BME280;66373;52.334;4.806;2023-09-19T06:23:33;100685.97;;;22.08;54.77
77263;BME280;66373;52.334;4.806;2023-09-19T06:26:01;100678.16;;;22.06;54.82
77263;BME280;66373;52.334;4.806;2023-09-19T06:28:29;100575.22;;;21.39;54.65
77263;BME280;66373;52.334;4.806;2023-09-19T06:30:56;100612.09;;;21.56;54.65
77263;BME280;66373;52.334;4.806;2023-09-19T06:33:23;100693.88;;;22.06;54.65
77263;BME280;66373;52.334;4.806;2023-09-19T06:35:50;100698.41;;;22.03;54.95
77263;BME280;66373;52.334;4.806;2023-09-19T06:38:26;100695.06;;;21.97;54.65
77263;BME280;66373;52.334;4.806;2023-09-19T06:40:54;100692.38;;;21.99;54.56
77263;BME280;66373;52.334;4.806;2023-09-19T06:43:26;100688.91;;;21.98;54.61
77263;BME280;66373;52.334;4.806;2023-09-19T06:45:54;100705.34;;;22.04;54.57
77263;BME280;66373;52.334;4.806;2023-09-19T06:48:21;100698.47;;;21.99;54.79
77263;BME280;66373;52.334;4.806;2023-09-19T06:50:50;100702.72;;;22.04;54.68
77263;BME280;66373;52.334;4.806;2023-09-19T06:53:17;100580.69;;;21.32;54.64
77263;BME280;66373;52.334;4.806;2023-09-19T06:55:46;100710.56;;;22.04;54.74
77263;BME280;66373;52.334;4.806;2023-09-19T06:58:13;100704.50;;;22.03;54.77
77263;BME280;66373;52.334;4.806;2023-09-19T07:00:42;100695.31;;;21.91;54.68
77263;BME280;66373;52.334;4.806;2023-09-19T07:03:10;100714.13;;;22.03;54.69
77263;BME280;66373;52.334;4.806;2023-09-19T07:05:38;100670.69;;;21.74;54.59
77263;BME280;66373;52.334;4.806;2023-09-19T07:08:06;100653.69;;;21.62;54.69
77263;BME280;66373;52.334;4.806;2023-09-19T07:10:35;100713.41;;;21.97;54.69
77263;BME280;66373;52.334;4.806;2023-09-19T07:13:04;100719.44;;;21.99;54.76
77263;BME280;66373;52.334;4.806;2023-09-19T07:15:37;100722.03;;;22.01;54.62
77263;BME280;66373;52.334;4.806;2023-09-19T07:18:12;100714.19;;;21.99;54.69
77263;BME280;66373;52.334;4.806;2023-09-19T07:20:40;100663.13;;;21.66;54.66
77263;BME280;66373;52.334;4.806;2023-09-19T07:23:15;100701.41;;;21.92;54.74
77263;BME280;66373;52.334;4.806;2023-09-19T07:25:42;100726.41;;;22.00;54.59
77263;BME280;66373;52.334;4.806;2023-09-19T07:28:10;100729.81;;;22.03;54.50
77263;BME280;66373;52.334;4.806;2023-09-19T07:30:37;100723.75;;;22.02;54.82
77263;BME280;66373;52.334;4.806;2023-09-19T07:33:06;100735.97;;;22.02;54.79
77263;BME280;66373;52.334;4.806;2023-09-19T07:35:37;100693.97;;;21.81;54.64
77263;BME280;66373;52.334;4.806;2023-09-19T07:38:05;100723.75;;;22.02;54.79
77263;BME280;66373;52.334;4.806;2023-09-19T07:40:37;100728.97;;;22.02;54.52
77263;BME280;66373;52.334;4.806;2023-09-19T07:43:04;100735.91;;;22.03;54.73
77263;BME280;66373;52.334;4.806;2023-09-19T07:45:33;100670.88;;;21.69;54.73
77263;BME280;66373;52.334;4.806;2023-09-19T07:48:02;100724.78;;;21.96;54.76
77263;BME280;66373;52.334;4.806;2023-09-19T07:50:34;100709.44;;;21.87;54.54
77263;BME280;66373;52.334;4.806;2023-09-19T07:53:02;100730.63;;;22.05;54.80
77263;BME280;66373;52.334;4.806;2023-09-19T07:55:30;100697.25;;;21.86;55.08
77263;BME280;66373;52.334;4.806;2023-09-19T07:57:59;100731.53;;;22.04;54.68
77263;BME280;66373;52.334;4.806;2023-09-19T08:00:29;100728.84;;;22.05;54.91
77263;BME280;66373;52.334;4.806;2023-09-19T08:02:59;100724.47;;;22.06;54.73
77263;BME280;66373;52.334;4.806;2023-09-19T08:05:26;100720.16;;;22.05;54.84
77263;BME280;66373;52.334;4.806;2023-09-19T08:07:54;100703.84;;;21.96;54.80
77263;BME280;66373;52.334;4.806;2023-09-19T08:10:22;100717.53;;;22.05;54.98
77263;BME280;66373;52.334;4.806;2023-09-19T08:12:53;100695.47;;;21.87;54.47
77263;BME280;66373;52.334;4.806;2023-09-19T08:15:23;100715.69;;;22.07;54.90
77263;BME280;66373;52.334;4.806;2023-09-19T08:17:50;100714.00;;;22.06;54.75
77263;BME280;66373;52.334;4.806;2023-09-19T08:20:22;100671.44;;;21.77;54.72
77263;BME280;66373;52.334;4.806;2023-09-19T08:22:53;100714.84;;;22.06;54.87
77263;BME280;66373;52.334;4.806;2023-09-19T08:25:20;100652.38;;;21.74;54.79
77263;BME280;66373;52.334;4.806;2023-09-19T08:27:49;100711.31;;;22.07;54.79
77263;BME280;66373;52.334;4.806;2023-09-19T08:30:17;100715.69;;;22.07;54.90
77263;BME280;66373;52.334;4.806;2023-09-19T08:32:45;100714.78;;;22.08;54.68
77263;BME280;66373;52.334;4.806;2023-09-19T08:35:13;100715.56;;;22.10;54.92
77263;BME280;66373;52.334;4.806;2023-09-19T08:37:42;100668.09;;;21.74;55.14
77263;BME280;66373;52.334;4.806;2023-09-19T08:40:11;100689.28;;;21.89;54.80
77263;BME280;66373;52.334;4.806;2023-09-19T08:42:48;100710.56;;;22.04;54.81
77263;BME280;66373;52.334;4.806;2023-09-19T08:45:18;100710.31;;;22.10;54.67
77263;BME280;66373;52.334;4.806;2023-09-19T08:47:59;100637.06;;;21.63;54.82
77263;BME280;66373;52.334;4.806;2023-09-19T08:50:29;100636.28;;;21.61;54.65
77263;BME280;66373;52.334;4.806;2023-09-19T08:53:01;100668.66;;;21.82;54.81
77263;BME280;66373;52.334;4.806;2023-09-19T08:55:31;100724.19;;;22.12;54.92
77263;BME280;66373;52.334;4.806;2023-09-19T08:58:04;100726.81;;;22.12;54.91
77263;BME280;66373;52.334;4.806;2023-09-19T09:00:35;100684.72;;;21.94;55.13
77263;BME280;66373;52.334;4.806;2023-09-19T09:03:03;100628.81;;;21.52;54.87
77263;BME280;66373;52.334;4.806;2023-09-19T09:05:32;100715.56;;;22.10;54.75
77263;BME280;66373;52.334;4.806;2023-09-19T09:08:05;100646.53;;;21.67;55.02
77263;BME280;66373;52.334;4.806;2023-09-19T09:10:33;100712.88;;;22.11;54.75
77263;BME280;66373;52.334;4.806;2023-09-19T09:13:02;100715.56;;;22.10;54.85
77263;BME280;66373;52.334;4.806;2023-09-19T09:15:35;100705.94;;;22.10;55.01
77263;BME280;66373;52.334;4.806;2023-09-19T09:18:03;100711.16;;;22.10;54.79
77263;BME280;66373;52.334;4.806;2023-09-19T09:20:30;100705.34;;;22.04;54.76
77263;BME280;66373;52.334;4.806;2023-09-19T09:23:00;100715.81;;;22.04;54.70
77263;BME280;66373;52.334;4.806;2023-09-19T09:25:50;100727.75;;;22.11;54.87
77263;BME280;66373;52.334;4.806;2023-09-19T09:28:21;100703.63;;;22.03;54.67
77263;BME280;66373;52.334;4.806;2023-09-19T09:30:48;100718.16;;;22.10;54.83
77263;BME280;66373;52.334;4.806;2023-09-19T09:33:16;100706.78;;;22.11;54.57
77263;BME280;66373;52.334;4.806;2023-09-19T09:35:54;100706.78;;;22.11;54.85
77263;BME280;66373;52.334;4.806;2023-09-19T09:38:26;100645.00;;;21.83;54.51
77263;BME280;66373;52.334;4.806;2023-09-19T09:40:56;100613.63;;;21.60;54.73
77263;BME280;66373;52.334;4.806;2023-09-19T09:43:29;100703.25;;;22.12;54.71
77263;BME280;66373;52.334;4.806;2023-09-19T09:46:14;100592.16;;;21.52;54.70
77263;BME280;66373;52.334;4.806;2023-09-19T09:49:10;100674.22;;;21.94;54.61
77263;BME280;66373;52.334;4.806;2023-09-19T09:51:58;100672.41;;;21.96;54.55
77263;BME280;66373;52.334;4.806;2023-09-19T09:54:29;100693.69;;;22.11;54.56
77263;BME280;66373;52.334;4.806;2023-09-19T09:57:05;100690.09;;;22.13;54.76
77263;BME280;66373;52.334;4.806;2023-09-19T10:00:09;100682.28;;;22.12;54.64
77263;BME280;66373;52.334;4.806;2023-09-19T10:02:45;100633.41;;;21.89;54.79
77263;BME280;66373;52.334;4.806;2023-09-19T10:05:15;100675.22;;;22.14;54.54
77263;BME280;66373;52.334;4.806;2023-09-19T10:07:54;100681.25;;;22.16;54.48
77263;BME280;66373;52.334;4.806;2023-09-19T10:10:30;100665.59;;;22.14;54.61
77263;BME280;66373;52.334;4.806;2023-09-19T10:13:06;100658.59;;;22.15;54.69
77263;BME280;66373;52.334;4.806;2023-09-19T10:15:38;100592.16;;;21.74;54.77
77263;BME280;66373;52.334;4.806;2023-09-19T10:18:06;100645.50;;;22.15;54.79
77263;BME280;66373;52.334;4.806;2023-09-19T10:20:37;100623.56;;;21.95;54.66
77263;BME280;66373;52.334;4.806;2023-09-19T10:23:08;100648.91;;;22.17;54.86
77263;BME280;66373;52.334;4.806;2023-09-19T10:25:37;100654.13;;;22.17;54.80
77263;BME280;66373;52.334;4.806;2023-09-19T10:28:12;100641.84;;;22.19;54.86
77263;BME280;66373;52.334;4.806;2023-09-19T10:30:43;100573.72;;;21.77;54.57
77263;BME280;66373;52.334;4.806;2023-09-19T10:33:11;100635.91;;;22.14;54.81
77263;BME280;66373;52.334;4.806;2023-09-19T10:35:40;100618.56;;;22.11;54.69
77263;BME280;66373;52.334;4.806;2023-09-19T10:38:10;100633.06;;;22.20;54.78
77263;BME280;66373;52.334;4.806;2023-09-19T10:40:38;100638.28;;;22.20;54.88
77263;BME280;66373;52.334;4.806;2023-09-19T10:43:18;100632.22;;;22.19;54.83
77263;BME280;66373;52.334;4.806;2023-09-19T10:45:45;100645.25;;;22.21;54.64
77263;BME280;66373;52.334;4.806;2023-09-19T10:48:15;100626.13;;;22.19;54.44
77263;BME280;66373;52.334;4.806;2023-09-19T10:50:48;100608.31;;;22.07;54.64
77263;BME280;66373;52.334;4.806;2023-09-19T10:53:16;100637.31;;;22.22;54.58
77263;BME280;66373;52.334;4.806;2023-09-19T10:55:56;100561.28;;;21.82;54.62
77263;BME280;66373;52.334;4.806;2023-09-19T10:58:28;100633.84;;;22.22;54.66
77263;BME280;66373;52.334;4.806;2023-09-19T11:00:56;100606.19;;;22.15;54.53
77263;BME280;66373;52.334;4.806;2023-09-19T11:03:27;100632.09;;;22.22;54.77
77263;BME280;66373;52.334;4.806;2023-09-19T11:06:04;100626.00;;;22.22;54.66
77263;BME280;66373;52.334;4.806;2023-09-19T11:09:00;100629.41;;;22.24;54.67
77263;BME280;66373;52.334;4.806;2023-09-19T11:11:44;100622.56;;;22.20;54.87
77263;BME280;66373;52.334;4.806;2023-09-19T11:14:30;100625.00;;;22.24;54.73
77263;BME280;66373;52.334;4.806;2023-09-19T11:20:31;100552.84;;;21.95;54.35
77263;BME280;66373;52.334;4.806;2023-09-19T11:23:18;100611.84;;;22.26;54.46
77263;BME280;66373;52.334;4.806;2023-09-19T11:25:49;100611.84;;;22.26;54.51
77263;BME280;66373;52.334;4.806;2023-09-19T11:28:38;100600.44;;;22.27;54.46
77263;BME280;66373;52.334;4.806;2023-09-19T11:34:41;100603.06;;;22.27;54.52
77263;BME280;66373;52.334;4.806;2023-09-19T11:40:28;100629.28;;;22.27;54.54
77263;BME280;66373;52.334;4.806;2023-09-19T11:42:58;100554.94;;;21.87;54.46
77263;BME280;66373;52.334;4.806;2023-09-19T11:48:32;100493.28;;;21.58;54.42
77263;BME280;66373;52.334;4.806;2023-09-19T11:51:11;100606.97;;;22.17;54.44
77263;BME280;66373;52.334;4.806;2023-09-19T11:53:45;100626.13;;;22.19;54.08
77263;BME280;66373;52.334;4.806;2023-09-19T11:56:15;100618.78;;;22.27;54.56
77263;BME280;66373;52.334;4.806;2023-09-19T11:58:44;100519.84;;;21.71;54.26
77263;BME280;66373;52.334;4.806;2023-09-19T12:01:15;100590.41;;;22.16;54.36
77263;BME280;66373;52.334;4.806;2023-09-19T12:03:47;100609.41;;;22.21;54.47
77263;BME280;66373;52.334;4.806;2023-09-19T12:06:21;100514.97;;;21.62;54.18
77263;BME280;66373;52.334;4.806;2023-09-19T12:08:50;100618.78;;;22.27;54.66
77263;BME280;66373;52.334;4.806;2023-09-19T12:11:21;100608.31;;;22.27;54.43
77263;BME280;66373;52.334;4.806;2023-09-19T12:13:50;100570.38;;;21.93;54.32
77263;BME280;66373;52.334;4.806;2023-09-19T12:16:19;100626.72;;;22.25;54.44
77263;BME280;66373;52.334;4.806;2023-09-19T12:18:50;100595.19;;;22.07;54.29
77263;BME280;66373;52.334;4.806;2023-09-19T12:21:26;100627.50;;;22.27;54.26
77263;BME280;66373;52.334;4.806;2023-09-19T12:24:12;100581.78;;;21.92;54.26
77263;BME280;66373;52.334;4.806;2023-09-19T12:26:43;100619.09;;;22.19;54.43
77263;BME280;66373;52.334;4.806;2023-09-19T12:29:17;100643.16;;;22.29;54.36
77263;BME280;66373;52.334;4.806;2023-09-19T12:31:51;100630.06;;;22.29;54.23
77263;BME280;66373;52.334;4.806;2023-09-19T12:34:21;100620.44;;;22.29;54.38
77263;BME280;66373;52.334;4.806;2023-09-19T12:37:07;100594.53;;;22.22;54.24
77263;BME280;66373;52.334;4.806;2023-09-19T12:39:39;100596.00;;;22.29;54.17
77263;BME280;66373;52.334;4.806;2023-09-19T12:42:10;100597.69;;;22.30;54.30
77263;BME280;66373;52.334;4.806;2023-09-19T12:44:41;100592.47;;;22.30;54.34
77263;BME280;66373;52.334;4.806;2023-09-19T12:47:11;100513.69;;;21.92;54.35
77263;BME280;66373;52.334;4.806;2023-09-19T12:50:09;100601.13;;;22.32;54.32
77263;BME280;66373;52.334;4.806;2023-09-19T12:52:42;100600.25;;;22.31;54.36
77263;BME280;66373;52.334;4.806;2023-09-19T12:55:21;100586.25;;;22.32;54.36
77263;BME280;66373;52.334;4.806;2023-09-19T12:58:07;100589.72;;;22.33;54.38
77263;BME280;66373;52.334;4.806;2023-09-19T13:00:37;100484.22;;;21.67;54.31
77263;BME280;66373;52.334;4.806;2023-09-19T13:03:27;100581.84;;;22.33;54.56
77263;BME280;66373;52.334;4.806;2023-09-19T13:05:59;100588.94;;;22.31;54.39
77263;BME280;66373;52.334;4.806;2023-09-19T13:08:30;100590.63;;;22.32;54.41
77263;BME280;66373;52.334;4.806;2023-09-19T13:11:06;100584.72;;;22.27;54.31
77263;BME280;66373;52.334;4.806;2023-09-19T13:13:39;100591.53;;;22.31;54.45
77263;BME280;66373;52.334;4.806;2023-09-19T13:16:08;100587.22;;;22.30;54.50
77263;BME280;66373;52.334;4.806;2023-09-19T13:18:42;100589.06;;;22.28;54.52
77263;BME280;66373;52.334;4.806;2023-09-19T13:21:12;100616.91;;;22.30;54.56
77263;BME280;66373;52.334;4.806;2023-09-19T13:23:51;100615.13;;;22.31;54.58